Time;durP1;ratioP1;P1;durP2;ratioP2;P2;SDS_P1;SDS_P2;PMS_P1;PMS_P2;Temp;Humidity;BMP_temperature;BMP_pressure;BME280_temperature;BME280_humidity;BME280_pressure;Samples;Min_cycle;Max_cycle;Signal;HPM_P1;HPM_P2
2021/06/17 00:04:43;;;;;;;8.40;7.18;;;;;22.10;100452.00;;;;10516712;28;20197;-79
2021/06/17 00:09:46;;;;;;;9.88;7.10;;;;;22.10;100446.00;;;;10529636;28;20207;-79
2021/06/17 00:14:48;;;;;;;11.88;7.60;;;;;22.10;100437.00;;;;10512240;28;20197;-79
2021/06/17 00:19:50;;;;;;;10.52;8.18;;;;;22.20;100419.00;;;;10478413;28;20204;-79
2021/06/17 00:24:52;;;;;;;8.27;7.43;;;;;22.20;100430.00;;;;10512253;28;20670;-79
2021/06/17 00:29:53;;;;;;;9.20;8.40;;;;;22.10;100431.00;;;;10495276;28;20203;-80
2021/06/17 00:34:55;;;;;;;9.18;8.27;;;;;22.00;100424.00;;;;10495737;28;20235;-79
2021/06/17 00:39:59;;;;;;;11.10;8.88;;;;;21.80;100424.00;;;;10470290;28;20198;-80
2021/06/17 00:45:02;;;;;;;10.32;8.40;;;;;21.70;100435.00;;;;10460247;28;20204;-79
2021/06/17 00:50:06;;;;;;;11.90;8.15;;;;;21.70;100435.00;;;;10511476;28;20189;-80
2021/06/17 00:55:09;;;;;;;10.60;8.38;;;;;21.60;100425.00;;;;10494968;28;20201;-79
2021/06/17 01:00:14;;;;;;;11.43;8.38;;;;;21.60;100433.00;;;;10478635;28;20662;-79
2021/06/17 01:05:21;;;;;;;10.55;8.32;;;;;21.50;100435.00;;;;10511690;28;20193;-80
2021/06/17 01:10:27;;;;;;;12.52;8.80;;;;;21.50;100430.00;;;;10511296;28;20196;-80
2021/06/17 01:15:33;;;;;;;13.90;8.82;;;;;21.40;100431.00;;;;10510868;28;20656;-80
2021/06/17 01:20:54;;;;;;;9.98;9.00;;;;;21.20;100428.00;;;;10511726;28;20193;-80
2021/06/17 01:26:17;;;;;;;9.50;8.57;;;;;21.20;100433.00;;;;10453487;28;20192;-80
2021/06/17 01:31:24;;;;;;;15.75;9.57;;;;;21.10;100428.00;;;;10452130;28;20193;-79
2021/06/17 01:36:36;;;;;;;10.43;9.45;;;;;21.00;100430.00;;;;10500949;28;20292;-79
2021/06/17 01:41:41;;;;;;;11.52;9.70;;;;;20.90;100425.00;;;;10493129;28;20189;-79
2021/06/17 01:46:44;;;;;;;11.43;10.30;;;;;20.80;100426.00;;;;10527511;28;20236;-79
2021/06/17 01:51:48;;;;;;;10.23;9.15;;;;;20.80;100425.00;;;;10492496;28;20189;-79
2021/06/17 01:56:53;;;;;;;12.60;9.13;;;;;20.80;100433.00;;;;10526367;28;20297;-80
2021/06/17 02:01:59;;;;;;;13.88;8.98;;;;;20.80;100420.00;;;;10492738;28;20207;-80
2021/06/17 02:07:02;;;;;;;13.20;9.63;;;;;20.80;100423.00;;;;10509151;28;20193;-80
2021/06/17 02:12:04;;;;;;;11.05;9.35;;;;;20.80;100406.00;;;;10492601;28;20223;-80
2021/06/17 02:17:07;;;;;;;11.93;9.00;;;;;20.80;100387.00;;;;10509834;28;20209;-79
2021/06/17 02:22:12;;;;;;;10.55;8.80;;;;;20.80;100383.00;;;;10515313;28;20855;-81
2021/06/17 02:27:27;;;;;;;12.90;9.50;;;;;20.80;100378.00;;;;10482745;28;20193;-80
2021/06/17 02:32:30;;;;;;;14.63;8.82;;;;;20.80;100377.00;;;;10483148;28;20263;-80
2021/06/17 02:37:35;;;;;;;10.10;9.10;;;;;20.80;100375.00;;;;10549998;28;20208;-81
2021/06/17 02:42:39;;;;;;;10.23;8.13;;;;;20.70;100386.00;;;;10532275;28;20713;-78
2021/06/17 02:47:41;;;;;;;13.02;9.10;;;;;20.70;100381.00;;;;10498339;28;20189;-81
2021/06/17 02:52:43;;;;;;;10.07;8.43;;;;;20.70;100374.00;;;;10532808;28;20193;-80
2021/06/17 02:58:20;;;;;;;10.30;7.97;;;;;20.60;100376.00;;;;10473863;28;20206;-79
2021/06/17 03:03:42;;;;;;;9.95;8.02;;;;;20.50;100376.00;;;;10456943;28;20603;-80
2021/06/17 03:08:57;;;;;;;9.13;8.23;;;;;20.40;100376.00;;;;10456693;28;20613;-78
2021/06/17 03:14:15;;;;;;;10.55;7.03;;;;;20.40;100360.00;;;;10456132;28;20605;-78
2021/06/17 03:19:18;;;;;;;11.68;6.82;;;;;20.40;100360.00;;;;10455232;28;20205;-79
2021/06/17 03:24:23;;;;;;;7.07;6.38;;;;;20.40;100367.00;;;;10463755;28;20185;-79
2021/06/17 03:29:31;;;;;;;12.30;5.60;;;;;20.50;100361.00;;;;10530113;28;20185;-78
2021/06/17 03:34:34;;;;;;;9.70;6.10;;;;;20.60;100353.00;;;;10513440;28;20563;-80
2021/06/17 03:39:37;;;;;;;7.88;5.03;;;;;20.70;100342.00;;;;10497178;28;20220;-78
2021/06/17 03:44:42;;;;;;;7.22;4.88;;;;;20.80;100335.00;;;;10512426;28;20208;-78
2021/06/17 03:49:45;;;;;;;6.40;5.05;;;;;20.90;100324.00;;;;10479068;28;20196;-78
2021/06/17 03:54:49;;;;;;;8.07;5.80;;;;;21.10;100317.00;;;;10492144;28;20485;-80
2021/06/17 03:59:55;;;;;;;7.13;5.13;;;;;21.10;100317.00;;;;10528632;28;20213;-81
2021/06/17 04:04:57;;;;;;;8.63;5.05;;;;;21.10;100319.00;;;;10496813;28;20189;-81
2021/06/17 04:10:00;;;;;;;7.97;5.50;;;;;21.20;100313.00;;;;10512047;28;20200;-79
2021/06/17 04:15:03;;;;;;;5.90;5.30;;;;;21.30;100321.00;;;;10478199;28;20283;-79
2021/06/17 04:20:08;;;;;;;10.52;5.18;;;;;21.50;100326.00;;;;10493841;28;20213;-78
2021/06/17 04:25:12;;;;;;;5.72;3.38;;;;;21.70;100336.00;;;;10494851;28;20203;-79
2021/06/17 04:30:17;;;;;;;8.48;3.60;;;;;22.20;100331.00;;;;10478684;28;20200;-81
2021/06/17 04:35:22;;;;;;;3.85;3.50;;;;;22.90;100317.00;;;;10512325;28;20224;-79
2021/06/17 04:40:24;;;;;;;3.75;3.10;;;;;23.50;100331.00;;;;10494101;28;20217;-80
2021/06/17 04:45:28;;;;;;;6.07;2.95;;;;;24.00;100315.00;;;;10526240;28;20196;-79
2021/06/17 04:50:30;;;;;;;3.50;3.17;;;;;24.40;100316.00;;;;10496960;28;20204;-81
2021/06/17 04:55:35;;;;;;;4.53;3.33;;;;;24.70;100324.00;;;;10476769;28;20200;-81
2021/06/17 05:00:37;;;;;;;3.47;2.92;;;;;24.80;100316.00;;;;10480507;28;20189;-80
2021/06/17 05:05:39;;;;;;;3.83;2.90;;;;;24.80;100325.00;;;;10473210;28;20207;-80
2021/06/17 05:10:48;;;;;;;4.18;2.88;;;;;24.90;100337.00;;;;10501758;28;20235;-81
2021/06/17 05:15:52;;;;;;;5.30;2.63;;;;;24.60;100359.00;;;;10519781;28;20196;-81
2021/06/17 05:20:56;;;;;;;3.28;3.03;;;;;24.20;100383.00;;;;10485235;28;20243;-79
2021/06/17 05:25:59;;;;;;;6.57;3.38;;;;;23.90;100436.00;;;;10492482;28;20204;-80
2021/06/17 05:31:05;;;;;;;6.60;3.75;;;;;24.10;100416.00;;;;10475686;28;20280;-81
2021/06/17 05:36:07;;;;;;;5.60;3.25;;;;;24.40;100427.00;;;;10495827;28;20265;-80
2021/06/17 05:41:09;;;;;;;5.00;2.85;;;;;24.70;100420.00;;;;10495829;28;20733;-81
2021/06/17 05:46:11;;;;;;;7.88;3.20;;;;;25.30;100443.00;;;;10453539;28;20657;-81
2021/06/17 05:51:14;;;;;;;10.45;3.80;;;;;25.70;100454.00;;;;10482122;28;20201;-81
2021/06/17 05:56:16;;;;;;;6.90;3.20;;;;;25.80;100472.00;;;;10473640;28;20210;-81
2021/06/17 06:01:19;;;;;;;7.15;2.90;;;;;26.30;100470.00;;;;10483781;28;20215;-82
2021/06/17 06:06:21;;;;;;;9.65;3.20;;;;;26.30;100467.00;;;;10496936;28;20199;-82
2021/06/17 06:11:23;;;;;;;6.20;2.50;;;;;27.10;100479.00;;;;10507205;28;20805;-81
2021/06/17 06:16:25;;;;;;;8.43;2.70;;;;;27.20;100458.00;;;;10487653;28;20209;-81
2021/06/17 06:21:30;;;;;;;6.75;2.35;;;;;27.40;100458.00;;;;10487899;28;20548;-82
2021/06/17 06:26:33;;;;;;;22.08;3.10;;;;;28.60;100451.00;;;;10475660;28;20188;-81
2021/06/17 06:31:35;;;;;;;6.60;2.20;;;;;27.70;100447.00;;;;10500715;28;20306;-81
2021/06/17 06:36:37;;;;;;;8.15;2.72;;;;;28.50;100435.00;;;;10505786;28;20274;-83
2021/06/17 06:41:41;;;;;;;8.48;2.40;;;;;28.60;100421.00;;;;10477322;28;20176;-81
2021/06/17 06:46:45;;;;;;;5.53;2.50;;;;;29.10;100407.00;;;;10513003;28;20240;-81
2021/06/17 06:51:47;;;;;;;7.38;2.63;;;;;30.30;100398.00;;;;10542884;28;20197;-82
2021/06/17 06:56:49;;;;;;;10.77;2.53;;;;;29.60;100383.00;;;;10499493;28;20254;-81
2021/06/17 07:01:51;;;;;;;5.85;2.00;;;;;29.00;100394.00;;;;10505052;28;20193;-80
2021/06/17 07:06:53;;;;;;;4.32;2.35;;;;;28.90;100397.00;;;;10484510;28;20185;-81
2021/06/17 07:11:55;;;;;;;9.80;2.38;;;;;28.60;100385.00;;;;10534837;28;20193;-81
2021/06/17 07:16:57;;;;;;;7.57;2.63;;;;;28.30;100376.00;;;;10499531;28;20296;-81
2021/06/17 07:22:00;;;;;;;8.38;2.90;;;;;28.10;100378.00;;;;10500974;28;20196;-81
2021/06/17 07:27:03;;;;;;;14.30;3.00;;;;;28.10;100336.00;;;;10477698;28;20203;-81
2021/06/17 07:32:08;;;;;;;11.45;2.50;;;;;28.00;100340.00;;;;10505972;28;20276;-81
2021/06/17 07:37:09;;;;;;;5.63;2.42;;;;;28.50;100345.00;;;;10471081;28;20273;-81
2021/06/17 07:42:11;;;;;;;7.40;2.30;;;;;28.80;100345.00;;;;10501568;28;20681;-80
2021/06/17 07:47:13;;;;;;;4.05;2.63;;;;;28.10;100345.00;;;;10500843;28;20181;-81
2021/06/17 07:52:15;;;;;;;8.35;2.85;;;;;27.30;100332.00;;;;10535192;28;20181;-81
2021/06/17 07:57:18;;;;;;;7.93;2.88;;;;;26.60;100355.00;;;;10499217;28;20205;-82
2021/06/17 08:02:19;;;;;;;6.32;2.70;;;;;26.60;100366.00;;;;10459830;28;20260;-81
2021/06/17 08:07:21;;;;;;;10.55;2.72;;;;;27.50;100379.00;;;;10468101;28;20197;-81
2021/06/17 08:12:29;;;;;;;9.93;2.70;;;;;28.20;100378.00;;;;10486766;28;20185;-81
2021/06/17 08:17:31;;;;;;;5.68;2.17;;;;;28.50;100381.00;;;;10508446;28;20217;-81
2021/06/17 08:22:33;;;;;;;13.10;2.50;;;;;28.80;100395.00;;;;10501644;28;20189;-80
2021/06/17 08:27:36;;;;;;;8.25;2.53;;;;;28.70;100399.00;;;;10475534;28;20194;-80
2021/06/17 08:32:38;;;;;;;5.40;2.78;;;;;28.80;100410.00;;;;10484499;28;20205;-81
2021/06/17 08:37:41;;;;;;;6.43;2.30;;;;;29.40;100412.00;;;;10458331;28;20692;-81
2021/06/17 08:42:44;;;;;;;11.10;2.40;;;;;30.00;100414.00;;;;10462257;28;20213;-80
2021/06/17 08:47:46;;;;;;;5.47;2.50;;;;;30.70;100409.00;;;;10463032;28;20280;-80
2021/06/17 08:52:49;;;;;;;6.50;2.40;;;;;31.70;100412.00;;;;10508777;28;20189;-80
2021/06/17 08:57:52;;;;;;;7.60;2.40;;;;;33.20;100404.00;;;;10465037;28;20202;-81
2021/06/17 09:02:56;;;;;;;7.65;2.30;;;;;33.00;100418.00;;;;10498116;28;20261;-81
2021/06/17 09:07:59;;;;;;;3.45;2.47;;;;;32.10;100418.00;;;;10524819;28;20192;-81
2021/06/17 09:13:03;;;;;;;3.20;2.15;;;;;32.80;100421.00;;;;10480851;28;20242;-81
2021/06/17 09:18:10;;;;;;;5.78;2.13;;;;;33.40;100424.00;;;;10515358;28;20209;-81
2021/06/17 09:23:26;;;;;;;6.72;3.10;;;;;34.50;100416.00;;;;10501944;28;20224;-81
2021/06/17 09:28:44;;;;;;;5.65;2.40;;;;;34.50;100425.00;;;;10525272;28;20190;-80
2021/06/17 09:33:48;;;;;;;10.48;2.40;;;;;35.10;100427.00;;;;10507938;28;20449;-81
2021/06/17 09:38:55;;;;;;;7.90;3.13;;;;;35.90;100437.00;;;;10516741;28;20545;-81
2021/06/17 09:43:58;;;;;;;5.65;2.45;;;;;34.80;100444.00;;;;10504166;28;20217;-81
2021/06/17 09:49:07;;;;;;;12.52;2.40;;;;;34.40;100453.00;;;;10486774;28;20847;-82
2021/06/17 09:54:25;;;;;;;7.28;2.67;;;;;34.30;100456.00;;;;10515210;28;20193;-82
2021/06/17 09:59:36;;;;;;;4.85;2.25;;;;;36.10;100447.00;;;;10482715;28;20205;-82
2021/06/17 10:04:38;;;;;;;6.35;2.53;;;;;36.50;100459.00;;;;10463412;28;20225;-81
2021/06/17 10:09:40;;;;;;;6.75;1.92;;;;;36.30;100464.00;;;;10493050;28;20192;-82
2021/06/17 10:14:42;;;;;;;6.95;2.35;;;;;36.50;100466.00;;;;10537773;28;20576;-82
2021/06/17 10:19:45;;;;;;;6.72;2.05;;;;;36.80;100461.00;;;;10506687;28;20555;-81
2021/06/17 10:24:47;;;;;;;8.05;2.10;;;;;36.70;100469.00;;;;10446543;28;20288;-82
2021/06/17 10:29:49;;;;;;;3.33;1.60;;;;;36.50;100476.00;;;;10520082;28;20184;-81
2021/06/17 10:34:55;;;;;;;3.95;1.58;;;;;36.80;100476.00;;;;10478814;28;20208;-82
2021/06/17 10:40:08;;;;;;;3.78;1.27;;;;;37.00;100482.00;;;;10490940;28;20224;-82
2021/06/17 10:45:40;;;;;;;4.50;1.50;;;;;37.00;100487.00;;;;10481478;28;20186;-81
2021/06/17 10:51:01;;;;;;;6.72;1.60;;;;;37.20;100503.00;;;;10504844;28;20193;-82
2021/06/17 10:56:06;;;;;;;6.80;1.85;;;;;37.10;100507.00;;;;10517538;28;20540;-82
2021/06/17 11:01:47;;;;;;;7.45;2.13;;;;;37.30;100513.00;;;;10520534;28;20280;-82
2021/06/17 11:06:49;;;;;;;4.60;1.85;;;;;37.50;100516.00;;;;10402002;28;20256;-80
2021/06/17 11:11:51;;;;;;;8.82;1.92;;;;;37.90;100520.00;;;;10490714;28;20210;-82
2021/06/17 11:16:55;;;;;;;4.20;2.30;;;;;37.90;100525.00;;;;10479528;28;20213;-82
2021/06/17 11:21:57;;;;;;;7.18;1.85;;;;;37.80;100519.00;;;;10467475;28;20265;-82
2021/06/17 11:27:02;;;;;;;3.38;1.50;;;;;38.20;100526.00;;;;10483654;28;20209;-81
2021/06/17 11:32:23;;;;;;;7.47;2.10;;;;;38.40;100532.00;;;;10477413;28;20208;-83
2021/06/17 11:37:30;;;;;;;12.82;2.95;;;;;37.00;100535.00;;;;10471248;28;20212;-81
2021/06/17 11:42:34;;;;;;;3.60;1.77;;;;;36.40;100542.00;;;;10493386;28;20212;-81
2021/06/17 11:47:44;;;;;;;5.00;2.28;;;;;37.00;100539.00;;;;10464227;28;20193;-82
2021/06/17 11:52:46;;;;;;;9.98;2.47;;;;;36.90;100549.00;;;;10488279;28;20246;-81
2021/06/17 11:57:49;;;;;;;9.75;2.40;;;;;37.30;100549.00;;;;10485992;28;20207;-81
2021/06/17 12:02:51;;;;;;;9.98;2.20;;;;;37.30;100554.00;;;;10451711;28;20224;-81
2021/06/17 12:07:59;;;;;;;8.68;2.25;;;;;37.50;100552.00;;;;10478384;28;20213;-81
2021/06/17 12:13:03;;;;;;;3.72;2.17;;;;;37.20;100560.00;;;;10475395;28;20197;-82
2021/06/17 12:18:07;;;;;;;6.95;1.90;;;;;37.70;100549.00;;;;10471725;28;20205;-81
2021/06/17 12:23:18;;;;;;;10.40;2.60;;;;;37.40;100564.00;;;;10478849;28;20209;-81
2021/06/17 12:28:20;;;;;;;5.03;2.08;;;;;37.80;100558.00;;;;10502534;28;20185;-82
2021/06/17 12:33:27;;;;;;;10.68;2.70;;;;;38.60;100579.00;;;;10468173;28;20244;-81
2021/06/17 12:38:35;;;;;;;3.95;2.28;;;;;38.60;100573.00;;;;10499548;28;20204;-81
2021/06/17 12:43:51;;;;;;;5.47;2.03;;;;;36.60;100575.00;;;;10499089;28;20192;-81
2021/06/17 12:54:27;;;;;;;7.68;1.80;;;;;36.50;100580.00;;;;10502826;28;20212;-80
2021/06/17 13:00:04;;;;;;;6.50;2.10;;;;;36.40;100568.00;;;;10477493;28;20205;-83
2021/06/17 13:05:12;;;;;;;4.40;2.20;;;;;37.50;100581.00;;;;10475588;28;20240;-81
2021/06/17 13:10:16;;;;;;;5.95;2.42;;;;;36.40;100587.00;;;;10502971;28;20200;-81
2021/06/17 13:15:28;;;;;;;5.85;2.28;;;;;37.00;100594.00;;;;10489908;28;20659;-80
2021/06/17 13:20:35;;;;;;;4.53;2.10;;;;;36.10;100581.00;;;;10481065;28;20205;-81
2021/06/17 13:25:37;;;;;;;3.10;1.98;;;;;35.90;100577.00;;;;10494162;28;20868;-81
2021/06/17 13:30:40;;;;;;;5.65;2.25;;;;;38.00;100582.00;;;;10505584;28;20190;-80
2021/06/17 13:35:43;;;;;;;5.50;1.67;;;;;39.70;100588.00;;;;10500558;28;20236;-81
2021/06/17 13:40:45;;;;;;;3.40;2.10;;;;;39.20;100583.00;;;;10476937;28;20204;-80
2021/06/17 13:45:48;;;;;;;8.88;2.20;;;;;38.10;100582.00;;;;10509996;28;20193;-81
2021/06/17 13:50:50;;;;;;;4.57;2.00;;;;;40.30;100569.00;;;;10511129;28;20590;-80
2021/06/17 13:55:52;;;;;;;4.40;2.10;;;;;37.90;100577.00;;;;10507305;28;20223;-80
2021/06/17 14:00:55;;;;;;;3.45;2.30;;;;;41.70;100573.00;;;;10504557;28;20204;-80
2021/06/17 14:05:57;;;;;;;3.92;1.80;;;;;39.30;100586.00;;;;10492360;28;20188;-81
2021/06/17 14:11:02;;;;;;;5.32;2.40;;;;;41.90;100581.00;;;;10524627;28;20283;-81
2021/06/17 14:16:04;;;;;;;4.90;2.20;;;;;41.20;100589.00;;;;10495465;28;20207;-81
2021/06/17 14:21:06;;;;;;;4.88;2.08;;;;;36.80;100589.00;;;;10481491;28;20295;-81
2021/06/17 14:26:08;;;;;;;5.88;2.30;;;;;35.40;100598.00;;;;10499196;28;20196;-81
2021/06/17 14:31:11;;;;;;;3.85;2.30;;;;;37.80;100602.00;;;;10474707;28;20656;-80
2021/06/17 14:36:19;;;;;;;3.70;2.13;;;;;40.60;100588.00;;;;10511281;28;20197;-80
2021/06/17 14:41:25;;;;;;;7.18;2.72;;;;;39.90;100594.00;;;;10541599;28;20250;-80
2021/06/17 14:46:27;;;;;;;6.97;2.20;;;;;36.80;100602.00;;;;10522422;28;20221;-80
2021/06/17 14:51:29;;;;;;;6.20;2.60;;;;;37.90;100587.00;;;;10477186;28;20529;-80
2021/06/17 14:56:31;;;;;;;4.22;2.22;;;;;42.50;100580.00;;;;10496219;28;20194;-79
2021/06/17 15:01:44;;;;;;;6.95;2.20;;;;;43.70;100598.00;;;;10509560;28;20252;-81
2021/06/17 15:06:46;;;;;;;4.25;2.13;;;;;40.10;100608.00;;;;10463413;28;20247;-80
2021/06/17 15:11:48;;;;;;;6.43;2.33;;;;;42.80;100593.00;;;;10514709;28;20198;-81
2021/06/17 15:16:50;;;;;;;3.85;2.42;;;;;44.70;100576.00;;;;10528905;28;20185;-81
2021/06/17 15:21:52;;;;;;;7.90;2.20;;;;;40.50;100586.00;;;;10496545;28;20216;-80
2021/06/17 15:26:54;;;;;;;5.70;2.38;;;;;43.40;100588.00;;;;10501042;28;20208;-80
2021/06/17 15:31:57;;;;;;;5.82;2.55;;;;;40.60;100580.00;;;;10471738;28;20595;-80
2021/06/17 15:36:59;;;;;;;5.10;2.67;;;;;39.50;100586.00;;;;10495559;28;20566;-80
2021/06/17 15:42:02;;;;;;;4.25;2.22;;;;;42.40;100595.00;;;;10557911;28;20209;-80
2021/06/17 15:47:04;;;;;;;3.95;2.45;;;;;37.90;100596.00;;;;10519504;28;20288;-79
2021/06/17 15:52:08;;;;;;;5.82;2.70;;;;;35.80;100600.00;;;;10532589;28;20279;-79
2021/06/17 15:57:10;;;;;;;4.00;2.53;;;;;36.00;100603.00;;;;10487241;28;20270;-79
2021/06/17 16:02:13;;;;;;;4.60;2.30;;;;;34.90;100613.00;;;;10489404;28;20185;-78
2021/06/17 16:07:15;;;;;;;5.50;2.20;;;;;34.10;100611.00;;;;10542952;28;20279;-80
2021/06/17 16:12:17;;;;;;;6.85;2.42;;;;;34.80;100607.00;;;;10553430;28;20213;-80
2021/06/17 16:17:20;;;;;;;5.28;2.28;;;;;34.30;100608.00;;;;10487978;28;20610;-79
2021/06/17 16:22:22;;;;;;;3.17;2.03;;;;;33.90;100611.00;;;;10507590;28;20200;-79
2021/06/17 16:27:24;;;;;;;5.25;2.13;;;;;33.50;100615.00;;;;10494220;28;20197;-80
2021/06/17 16:32:26;;;;;;;5.57;1.95;;;;;33.00;100607.00;;;;10470381;28;20222;-80
2021/06/17 16:37:28;;;;;;;5.65;2.10;;;;;33.00;100598.00;;;;10498050;28;20284;-79
2021/06/17 16:42:30;;;;;;;5.32;2.03;;;;;32.60;100603.00;;;;10470881;28;20208;-79
2021/06/17 16:47:33;;;;;;;4.45;2.03;;;;;32.50;100608.00;;;;10487826;28;20644;-78
2021/06/17 16:52:34;;;;;;;4.43;1.80;;;;;32.40;100619.00;;;;10501804;28;20201;-78
2021/06/17 16:57:37;;;;;;;3.97;1.90;;;;;32.30;100627.00;;;;10481779;28;20212;-78
2021/06/17 17:02:39;;;;;;;4.32;1.90;;;;;32.40;100614.00;;;;10507261;28;20272;-78
2021/06/17 17:07:43;;;;;;;6.13;2.30;;;;;32.30;100629.00;;;;10490012;28;20185;-78
2021/06/17 17:12:47;;;;;;;4.85;2.00;;;;;31.50;100629.00;;;;10494953;28;20185;-78
2021/06/17 17:17:49;;;;;;;4.40;2.55;;;;;31.00;100635.00;;;;10508046;28;20617;-79
2021/06/17 17:22:52;;;;;;;4.57;2.58;;;;;30.70;100624.00;;;;10526325;28;20196;-78
2021/06/17 17:27:55;;;;;;;5.47;2.30;;;;;30.50;100631.00;;;;10499418;28;20197;-77
2021/06/17 17:33:00;;;;;;;4.28;2.30;;;;;30.40;100634.00;;;;10506722;28;20778;-78
2021/06/17 17:38:10;;;;;;;4.65;2.00;;;;;30.10;100628.00;;;;10473840;28;20222;-78
2021/06/17 17:43:12;;;;;;;3.05;2.28;;;;;29.70;100632.00;;;;10482201;28;20193;-78
2021/06/17 17:48:14;;;;;;;5.85;2.92;;;;;29.50;100653.00;;;;10489246;28;20200;-78
2021/06/17 17:53:16;;;;;;;6.25;2.58;;;;;29.30;100641.00;;;;10494954;28;20547;-78
2021/06/17 17:58:18;;;;;;;5.60;2.35;;;;;29.00;100643.00;;;;10514311;28;20216;-77
2021/06/17 18:03:20;;;;;;;5.43;1.65;;;;;28.80;100651.00;;;;10530941;28;20189;-78
2021/06/17 18:08:22;;;;;;;3.78;2.30;;;;;28.90;100649.00;;;;10530902;28;20207;-77
2021/06/17 18:13:24;;;;;;;5.05;2.30;;;;;29.10;100655.00;;;;10478671;28;20189;-77
2021/06/17 18:18:27;;;;;;;4.97;2.40;;;;;29.20;100661.00;;;;10510825;28;20212;-77
2021/06/17 18:23:29;;;;;;;5.68;2.33;;;;;29.10;100659.00;;;;10451144;28;20190;-77
2021/06/17 18:28:31;;;;;;;4.65;2.00;;;;;28.80;100672.00;;;;10469492;28;20597;-78
2021/06/17 18:33:32;;;;;;;7.55;2.45;;;;;28.60;100670.00;;;;10515521;28;20232;-78
2021/06/17 18:38:35;;;;;;;7.05;2.28;;;;;28.30;100665.00;;;;10495737;28;20676;-77
2021/06/17 18:43:36;;;;;;;5.65;2.20;;;;;28.00;100672.00;;;;10502713;28;20185;-78
2021/06/17 18:48:38;;;;;;;5.07;2.20;;;;;27.70;100679.00;;;;10529853;28;20197;-78
2021/06/17 18:53:40;;;;;;;4.28;1.95;;;;;27.40;100681.00;;;;10498240;28;20193;-78
2021/06/17 18:58:42;;;;;;;5.78;2.22;;;;;27.20;100686.00;;;;10511941;28;20225;-78
2021/06/17 19:03:44;;;;;;;3.72;2.35;;;;;27.00;100690.00;;;;10516202;28;20204;-78
2021/06/17 19:08:46;;;;;;;9.45;2.50;;;;;26.70;100693.00;;;;10531519;28;20196;-78
2021/06/17 19:13:48;;;;;;;5.57;2.75;;;;;26.60;100696.00;;;;10548994;28;20188;-78
2021/06/17 19:18:50;;;;;;;9.25;2.53;;;;;26.40;100696.00;;;;10549141;28;20254;-78
2021/06/17 19:23:53;;;;;;;6.78;2.25;;;;;26.20;100707.00;;;;10465802;28;20697;-78
2021/06/17 19:28:55;;;;;;;6.53;2.50;;;;;26.10;100718.00;;;;10510142;28;20185;-78
2021/06/17 19:33:58;;;;;;;8.60;2.50;;;;;25.90;100718.00;;;;10458888;28;20281;-78
2021/06/17 19:39:00;;;;;;;10.88;2.70;;;;;25.80;100725.00;;;;10499297;28;20221;-78
2021/06/17 19:44:05;;;;;;;9.38;3.05;;;;;25.60;100717.00;;;;10491943;28;20203;-78
2021/06/17 19:49:07;;;;;;;6.95;2.30;;;;;25.40;100717.00;;;;10509035;28;20574;-78
2021/06/17 19:54:12;;;;;;;6.07;2.20;;;;;25.30;100719.00;;;;10521832;28;20211;-77
2021/06/17 19:59:14;;;;;;;5.82;2.60;;;;;25.20;100722.00;;;;10536156;28;20209;-79
2021/06/17 20:04:16;;;;;;;6.60;2.60;;;;;25.10;100718.00;;;;10508623;28;20197;-78
2021/06/17 20:09:18;;;;;;;9.40;3.17;;;;;25.00;100710.00;;;;10503026;28;20185;-78
2021/06/17 20:14:19;;;;;;;5.18;2.53;;;;;24.90;100721.00;;;;10471186;28;20224;-78
2021/06/17 20:19:21;;;;;;;10.32;3.13;;;;;24.90;100729.00;;;;10504008;28;20227;-77
2021/06/17 20:24:23;;;;;;;3.67;2.40;;;;;24.80;100739.00;;;;10505046;28;20526;-78
2021/06/17 20:29:26;;;;;;;3.78;2.60;;;;;24.80;100741.00;;;;10519962;28;20191;-78
2021/06/17 20:34:28;;;;;;;6.43;2.85;;;;;24.70;100747.00;;;;10511521;28;20726;-78
2021/06/17 20:39:30;;;;;;;6.72;3.40;;;;;24.60;100754.00;;;;10519265;28;20208;-79
2021/06/17 20:44:32;;;;;;;7.13;3.60;;;;;24.40;100761.00;;;;10477264;28;20203;-78
2021/06/17 20:49:34;;;;;;;7.05;3.55;;;;;24.30;100770.00;;;;10477455;28;20548;-77
2021/06/17 20:54:37;;;;;;;6.65;4.57;;;;;24.10;100775.00;;;;10472733;28;20205;-78
2021/06/17 20:59:39;;;;;;;10.07;5.78;;;;;24.00;100772.00;;;;10464729;28;20233;-78
2021/06/17 21:04:41;;;;;;;9.65;5.53;;;;;23.80;100793.00;;;;10503331;28;20242;-77
2021/06/17 21:09:45;;;;;;;9.93;6.05;;;;;23.80;100796.00;;;;10504160;28;20177;-78
2021/06/17 21:14:47;;;;;;;7.70;6.35;;;;;23.70;100804.00;;;;10509988;28;20949;-78
2021/06/17 21:19:49;;;;;;;8.05;6.05;;;;;23.70;100797.00;;;;10551305;28;20204;-77
2021/06/17 21:24:52;;;;;;;7.57;6.03;;;;;23.60;100812.00;;;;10484238;28;20193;-77
2021/06/17 21:29:54;;;;;;;11.05;6.35;;;;;23.50;100831.00;;;;10479663;28;20200;-79
2021/06/17 21:34:56;;;;;;;9.38;7.65;;;;;23.50;100832.00;;;;10527686;28;20687;-77
2021/06/17 21:39:58;;;;;;;8.68;6.90;;;;;23.50;100836.00;;;;10493493;28;20212;-77
2021/06/17 21:45:01;;;;;;;13.70;7.97;;;;;23.50;100833.00;;;;10504123;28;20199;-78
2021/06/17 21:50:04;;;;;;;11.18;7.00;;;;;23.50;100805.00;;;;10522457;28;20195;-77
2021/06/17 21:55:06;;;;;;;7.93;7.13;;;;;23.50;100819.00;;;;10563120;28;20199;-77
2021/06/17 22:00:13;;;;;;;11.00;8.32;;;;;23.50;100846.00;;;;10527638;28;20273;-79
2021/06/17 22:05:17;;;;;;;10.80;7.28;;;;;23.50;100855.00;;;;10511519;28;20193;-78
2021/06/17 22:10:19;;;;;;;11.60;8.15;;;;;23.40;100847.00;;;;10481562;28;20186;-77
2021/06/17 22:15:21;;;;;;;7.82;6.93;;;;;23.40;100851.00;;;;10519559;28;21169;-77
2021/06/17 22:20:23;;;;;;;10.45;7.63;;;;;23.40;100854.00;;;;10477003;28;20205;-77
2021/06/17 22:25:26;;;;;;;11.70;8.07;;;;;23.30;100864.00;;;;10479006;28;20262;-77
2021/06/17 22:30:28;;;;;;;9.02;7.47;;;;;23.30;100877.00;;;;10497142;28;20200;-77
2021/06/17 22:35:30;;;;;;;8.52;7.32;;;;;23.30;100861.00;;;;10501520;28;20228;-77
2021/06/17 22:40:32;;;;;;;10.27;7.95;;;;;23.40;100849.00;;;;10505548;28;20205;-77
2021/06/17 22:45:34;;;;;;;9.57;8.05;;;;;23.30;100844.00;;;;10517047;28;20594;-77
2021/06/17 22:50:36;;;;;;;10.15;8.00;;;;;23.30;100849.00;;;;10527170;28;20201;-77
2021/06/17 22:55:42;;;;;;;10.43;7.75;;;;;23.30;100838.00;;;;10490961;28;20189;-77
2021/06/17 23:00:44;;;;;;;10.63;8.60;;;;;23.20;100828.00;;;;10519972;28;20244;-78
2021/06/17 23:05:46;;;;;;;11.00;7.72;;;;;23.10;100826.00;;;;10496139;28;20197;-77
2021/06/17 23:10:48;;;;;;;8.88;8.00;;;;;23.10;100824.00;;;;10496054;28;20208;-77
2021/06/17 23:15:50;;;;;;;10.30;7.45;;;;;23.00;100824.00;;;;10494295;28;20197;-77
2021/06/17 23:20:52;;;;;;;12.02;7.78;;;;;22.90;100850.00;;;;10485358;28;20735;-77
2021/06/17 23:25:54;;;;;;;10.20;8.27;;;;;22.80;100834.00;;;;10523248;28;20455;-77
2021/06/17 23:30:56;;;;;;;9.90;8.35;;;;;22.70;100845.00;;;;10485815;28;20666;-78
2021/06/17 23:35:58;;;;;;;13.38;8.73;;;;;22.60;100868.00;;;;10475412;28;20224;-77
2021/06/17 23:41:00;;;;;;;11.18;8.70;;;;;22.70;100856.00;;;;10463310;28;20637;-77
2021/06/17 23:46:02;;;;;;;11.05;8.80;;;;;22.60;100857.00;;;;10469725;28;20737;-77
2021/06/17 23:51:04;;;;;;;14.77;11.15;;;;;22.50;100857.00;;;;10504204;28;20192;-78
2021/06/17 23:56:07;;;;;;;15.38;11.73;;;;;22.40;100857.00;;;;10487906;28;20190;-78
